Weather at Oslo Heliport, Rikshospitalet

Public forecast

Using degrees Celsius for public forecast. Weather courtesy of forecast.io.

Closest aviation weather report (METAR) to Oslo Heliport, Rikshospitalet

Closest report is Oslo Airport, Gardermoen, 18.7 nm (34.6 km) NE.

2024/05/23 23:50 (retrieved 40 minutes ago)

ENGM 232350Z 07003KT 040V110 CAVOK 17/10 Q1018

Closest aviation forecast (TAF) to Oslo Heliport, Rikshospitalet

Closest forecast is Leeuwarden Air Base, 435.2 nm (805.9 km) SSW.

2024/05/23 21:03 (retrieved 3 hours ago)

TAF TAF EHLW 232037Z 2321/2409 VRB02KT CAVOK BECMG 2322/2401 3500 BR MIFG PROB40 TEMPO 2401/2405 1500 BCFG BECMG 2405/2407 13005KT 9999 NSW